createdAt,value
2022-10-26T00:03:17.731Z,88.70
2022-10-26T00:13:20.343Z,88.41
2022-10-26T00:23:24.309Z,88.25
2022-10-26T00:33:27.652Z,88.28
2022-10-26T00:43:40.141Z,88.10
2022-10-26T00:53:43.100Z,88.18
2022-10-26T01:03:48.570Z,88.40
2022-10-26T01:13:53.663Z,88.47
2022-10-26T01:24:22.866Z,88.76
2022-10-26T01:34:35.981Z,88.76
2022-10-26T01:44:42.709Z,88.92
2022-10-26T01:54:47.023Z,89.33
2022-10-26T02:05:08.160Z,89.79
2022-10-26T02:15:22.080Z,89.67
2022-10-26T02:25:27.298Z,89.82
2022-10-26T02:35:35.202Z,89.71
2022-10-26T02:45:43.743Z,89.57
2022-10-26T02:55:51.630Z,89.60
2022-10-26T03:05:54.340Z,89.58
2022-10-26T03:15:58.387Z,89.54
2022-10-26T03:26:01.244Z,89.64
2022-10-26T03:36:05.912Z,89.66
2022-10-26T03:46:08.707Z,89.69
2022-10-26T03:56:12.630Z,89.73
2022-10-26T04:06:15.607Z,89.77
2022-10-26T04:16:19.572Z,90.10
2022-10-26T04:26:22.246Z,89.97
2022-10-26T04:36:26.215Z,90.12
2022-10-26T04:46:29.456Z,90.18
2022-10-26T04:56:34.141Z,90.13
2022-10-26T05:06:36.877Z,90.82
2022-10-26T05:16:40.843Z,90.69
2022-10-26T05:26:44.384Z,91.05
2022-10-26T05:36:48.541Z,90.69
2022-10-26T05:46:51.125Z,91.18
2022-10-26T05:56:55.873Z,91.54
2022-10-26T06:06:59.949Z,92.03
2022-10-26T06:17:13.091Z,91.85
2022-10-26T06:27:27.424Z,92.01
2022-10-26T06:37:32.215Z,91.95
2022-10-26T06:47:39.886Z,91.89
2022-10-26T06:57:45.039Z,91.82
2022-10-26T07:07:49.064Z,92.07
2022-10-26T07:17:53.360Z,92.07
2022-10-26T07:27:59.022Z,91.86
2022-10-26T07:38:04.257Z,91.59
2022-10-26T07:48:07.442Z,91.55
2022-10-26T07:58:11.403Z,91.37
2022-10-26T08:08:14.146Z,90.96
2022-10-26T08:18:18.087Z,90.86
2022-10-26T08:28:20.678Z,90.42
2022-10-26T08:38:24.777Z,90.16
2022-10-26T08:48:31.347Z,89.42
2022-10-26T08:58:41.208Z,89.18
2022-10-26T09:08:54.901Z,88.57
2022-10-26T09:19:12.799Z,87.64
2022-10-26T09:29:15.645Z,87.07
2022-10-26T09:39:25.498Z,86.40
2022-10-26T09:49:38.579Z,86.33
2022-10-26T09:59:42.967Z,84.68
2022-10-26T10:09:45.595Z,84.06
2022-10-26T10:19:50.212Z,83.83
2022-10-26T10:29:58.368Z,81.77
2022-10-26T10:40:09.099Z,80.75
2022-10-26T10:50:20.268Z,78.37
2022-10-26T11:00:25.655Z,75.67
2022-10-26T11:10:33.918Z,68.36
2022-10-26T11:20:42.198Z,44.89
2022-10-26T11:30:50.294Z,51.85
2022-10-26T11:41:01.838Z,60.08
2022-10-26T11:51:07.096Z,62.53
2022-10-26T12:01:15.153Z,50.43
2022-10-26T12:11:38.952Z,38.94
2022-10-26T12:21:43.875Z,50.37
2022-10-26T12:31:46.461Z,48.72
2022-10-26T12:41:58.704Z,47.60
2022-10-26T13:02:33.444Z,57.49
2022-10-26T13:12:48.523Z,58.23
2022-10-26T13:22:53.698Z,59.04
2022-10-26T13:32:58.181Z,60.28
2022-10-26T13:43:06.466Z,57.03
2022-10-26T13:53:16.135Z,58.59
2022-10-26T14:03:21.527Z,59.71
2022-10-26T14:13:26.310Z,62.41
2022-10-26T14:23:35.668Z,64.76
2022-10-26T14:33:38.308Z,66.11
2022-10-26T14:43:42.407Z,67.41
2022-10-26T14:53:49.941Z,68.42
2022-10-26T15:03:58.042Z,69.65
2022-10-26T15:14:01.517Z,71.31
2022-10-26T15:24:22.385Z,72.90
2022-10-26T15:34:25.016Z,73.41
2022-10-26T15:44:28.960Z,73.98
2022-10-26T15:54:31.553Z,75.63
2022-10-26T16:04:35.497Z,75.99
2022-10-26T16:14:53.260Z,76.98
2022-10-26T16:25:02.060Z,78.27
2022-10-26T16:35:05.023Z,79.01
2022-10-26T16:45:09.720Z,79.10
2022-10-26T16:55:12.330Z,79.55
2022-10-26T17:05:16.540Z,80.33
2022-10-26T17:15:21.097Z,80.48
2022-10-26T17:25:26.097Z,80.80
2022-10-26T17:35:28.762Z,81.15
2022-10-26T17:45:32.670Z,81.78
2022-10-26T17:55:35.422Z,82.41
2022-10-26T18:05:39.619Z,82.93
2022-10-26T18:15:42.248Z,83.58
2022-10-26T18:25:46.209Z,84.14
2022-10-26T18:35:48.860Z,84.75
2022-10-26T18:45:53.878Z,85.31
2022-10-26T18:56:02.006Z,85.99
2022-10-26T19:06:14.740Z,86.19
2022-10-26T19:16:33.533Z,86.43
2022-10-26T19:26:44.174Z,86.25
2022-10-26T19:36:47.355Z,86.74
2022-10-26T19:46:51.455Z,87.09
2022-10-26T19:56:54.126Z,87.80
2022-10-26T20:07:00.443Z,88.35
2022-10-26T20:17:04.687Z,87.94
2022-10-26T20:27:08.623Z,87.91
2022-10-26T20:37:13.066Z,87.67
2022-10-26T20:47:17.706Z,87.84
2022-10-26T20:57:26.538Z,88.22
2022-10-26T21:07:30.550Z,88.51
2022-10-26T21:17:34.421Z,88.16
2022-10-26T21:27:38.543Z,88.04
2022-10-26T21:37:41.168Z,88.25
2022-10-26T21:47:45.877Z,88.45
2022-10-26T21:57:48.575Z,88.74
2022-10-26T22:07:53.646Z,89.62
2022-10-26T22:17:56.414Z,90.35
2022-10-26T22:28:00.483Z,90.18
2022-10-26T22:38:03.129Z,89.89
2022-10-26T22:58:14.639Z,89.69
2022-10-26T23:08:18.582Z,89.57
2022-10-26T23:18:21.270Z,89.97
2022-10-26T23:28:25.229Z,89.83
2022-10-26T23:38:28.129Z,89.86
2022-10-26T23:48:32.122Z,90.12
2022-10-26T23:58:34.727Z,90.21
